sensor_id;sensor_type;location;lat;lon;timestamp;P1;durP1;ratioP1;P2;durP2;ratioP2
13999;SDS011;7075;53.574;10.054;2022-10-16T00:01:45;84.18;;;79.38;;
13999;SDS011;7075;53.574;10.054;2022-10-16T00:04:11;83.47;;;78.85;;
13999;SDS011;7075;53.574;10.054;2022-10-16T00:06:37;79.72;;;75.25;;
13999;SDS011;7075;53.574;10.054;2022-10-16T00:09:02;76.38;;;72.18;;
13999;SDS011;7075;53.574;10.054;2022-10-16T00:11:30;76.95;;;72.80;;
13999;SDS011;7075;53.574;10.054;2022-10-16T00:14:05;72.68;;;68.78;;
13999;SDS011;7075;53.574;10.054;2022-10-16T00:16:33;77.80;;;73.50;;
13999;SDS011;7075;53.574;10.054;2022-10-16T00:18:59;81.67;;;77.17;;
13999;SDS011;7075;53.574;10.054;2022-10-16T00:21:26;74.13;;;70.20;;
13999;SDS011;7075;53.574;10.054;2022-10-16T00:23:55;79.43;;;75.00;;
13999;SDS011;7075;53.574;10.054;2022-10-16T00:26:24;76.57;;;72.47;;
13999;SDS011;7075;53.574;10.054;2022-10-16T00:28:50;74.80;;;70.80;;
13999;SDS011;7075;53.574;10.054;2022-10-16T00:31:16;72.40;;;68.47;;
13999;SDS011;7075;53.574;10.054;2022-10-16T00:33:43;79.82;;;75.50;;
13999;SDS011;7075;53.574;10.054;2022-10-16T00:36:10;84.90;;;80.13;;
13999;SDS011;7075;53.574;10.054;2022-10-16T00:38:38;86.32;;;81.60;;
13999;SDS011;7075;53.574;10.054;2022-10-16T00:41:04;86.25;;;81.57;;
13999;SDS011;7075;53.574;10.054;2022-10-16T00:43:45;92.88;;;87.82;;
13999;SDS011;7075;53.574;10.054;2022-10-16T00:46:17;92.83;;;87.77;;
13999;SDS011;7075;53.574;10.054;2022-10-16T00:51:30;112.23;;;105.83;;
13999;SDS011;7075;53.574;10.054;2022-10-16T00:53:59;115.03;;;108.82;;
13999;SDS011;7075;53.574;10.054;2022-10-16T00:56:27;104.63;;;99.10;;
13999;SDS011;7075;53.574;10.054;2022-10-16T00:58:52;112.60;;;106.30;;
13999;SDS011;7075;53.574;10.054;2022-10-16T01:01:18;110.78;;;104.68;;
13999;SDS011;7075;53.574;10.054;2022-10-16T01:03:44;123.95;;;117.13;;
13999;SDS011;7075;53.574;10.054;2022-10-16T01:06:29;114.88;;;108.78;;
13999;SDS011;7075;53.574;10.054;2022-10-16T01:17:18;117.88;;;111.55;;
13999;SDS011;7075;53.574;10.054;2022-10-16T01:20:05;119.25;;;112.65;;
13999;SDS011;7075;53.574;10.054;2022-10-16T01:28:36;105.50;;;99.93;;
13999;SDS011;7075;53.574;10.054;2022-10-16T01:31:20;99.03;;;93.70;;
13999;SDS011;7075;53.574;10.054;2022-10-16T01:34:00;103.53;;;98.03;;
13999;SDS011;7075;53.574;10.054;2022-10-16T01:36:35;101.93;;;96.60;;
13999;SDS011;7075;53.574;10.054;2022-10-16T01:39:09;104.05;;;98.43;;
13999;SDS011;7075;53.574;10.054;2022-10-16T01:41:41;107.65;;;102.00;;
13999;SDS011;7075;53.574;10.054;2022-10-16T01:44:25;105.57;;;100.18;;
13999;SDS011;7075;53.574;10.054;2022-10-16T01:46:53;102.88;;;97.43;;
13999;SDS011;7075;53.574;10.054;2022-10-16T01:49:20;102.93;;;97.53;;
13999;SDS011;7075;53.574;10.054;2022-10-16T01:51:49;108.72;;;102.90;;
13999;SDS011;7075;53.574;10.054;2022-10-16T01:54:19;111.10;;;105.20;;
13999;SDS011;7075;53.574;10.054;2022-10-16T01:56:48;109.82;;;104.00;;
13999;SDS011;7075;53.574;10.054;2022-10-16T01:59:16;105.70;;;100.03;;
13999;SDS011;7075;53.574;10.054;2022-10-16T02:01:49;116.82;;;110.13;;
13999;SDS011;7075;53.574;10.054;2022-10-16T02:04:24;120.68;;;114.28;;
13999;SDS011;7075;53.574;10.054;2022-10-16T02:06:54;108.05;;;102.25;;
13999;SDS011;7075;53.574;10.054;2022-10-16T02:09:20;104.85;;;99.15;;
13999;SDS011;7075;53.574;10.054;2022-10-16T02:11:46;97.75;;;92.40;;
13999;SDS011;7075;53.574;10.054;2022-10-16T02:14:14;96.75;;;91.40;;
13999;SDS011;7075;53.574;10.054;2022-10-16T02:16:41;91.32;;;86.22;;
13999;SDS011;7075;53.574;10.054;2022-10-16T02:19:11;105.55;;;99.75;;
13999;SDS011;7075;53.574;10.054;2022-10-16T02:27:15;89.43;;;84.60;;
13999;SDS011;7075;53.574;10.054;2022-10-16T02:30:25;94.63;;;89.55;;
13999;SDS011;7075;53.574;10.054;2022-10-16T02:32:57;80.60;;;76.40;;
13999;SDS011;7075;53.574;10.054;2022-10-16T02:35:25;86.95;;;82.35;;
13999;SDS011;7075;53.574;10.054;2022-10-16T02:37:52;83.03;;;78.43;;
13999;SDS011;7075;53.574;10.054;2022-10-16T02:40:19;86.63;;;82.05;;
13999;SDS011;7075;53.574;10.054;2022-10-16T02:42:49;77.73;;;73.53;;
13999;SDS011;7075;53.574;10.054;2022-10-16T02:45:15;79.00;;;74.72;;
13999;SDS011;7075;53.574;10.054;2022-10-16T02:47:42;80.40;;;75.82;;
13999;SDS011;7075;53.574;10.054;2022-10-16T02:50:07;78.10;;;74.00;;
13999;SDS011;7075;53.574;10.054;2022-10-16T02:52:33;82.70;;;78.30;;
13999;SDS011;7075;53.574;10.054;2022-10-16T02:54:59;86.07;;;81.53;;
13999;SDS011;7075;53.574;10.054;2022-10-16T02:57:24;84.18;;;79.88;;
13999;SDS011;7075;53.574;10.054;2022-10-16T02:59:50;80.33;;;76.13;;
13999;SDS011;7075;53.574;10.054;2022-10-16T03:02:15;83.03;;;78.77;;
13999;SDS011;7075;53.574;10.054;2022-10-16T03:04:41;80.80;;;76.32;;
13999;SDS011;7075;53.574;10.054;2022-10-16T03:07:06;79.10;;;75.00;;
13999;SDS011;7075;53.574;10.054;2022-10-16T03:09:32;84.63;;;80.07;;
13999;SDS011;7075;53.574;10.054;2022-10-16T03:11:58;81.20;;;76.90;;
13999;SDS011;7075;53.574;10.054;2022-10-16T03:14:23;83.37;;;78.97;;
13999;SDS011;7075;53.574;10.054;2022-10-16T03:16:49;85.33;;;80.77;;
13999;SDS011;7075;53.574;10.054;2022-10-16T03:19:18;83.47;;;78.97;;
13999;SDS011;7075;53.574;10.054;2022-10-16T03:21:44;85.63;;;80.90;;
13999;SDS011;7075;53.574;10.054;2022-10-16T03:24:10;83.22;;;78.82;;
13999;SDS011;7075;53.574;10.054;2022-10-16T03:26:35;78.20;;;74.03;;
13999;SDS011;7075;53.574;10.054;2022-10-16T03:29:01;85.37;;;81.03;;
13999;SDS011;7075;53.574;10.054;2022-10-16T03:31:28;81.65;;;77.28;;
13999;SDS011;7075;53.574;10.054;2022-10-16T03:33:54;79.28;;;75.13;;
13999;SDS011;7075;53.574;10.054;2022-10-16T03:36:19;77.03;;;72.97;;
13999;SDS011;7075;53.574;10.054;2022-10-16T03:38:45;79.30;;;75.10;;
13999;SDS011;7075;53.574;10.054;2022-10-16T03:41:11;79.88;;;75.38;;
13999;SDS011;7075;53.574;10.054;2022-10-16T03:43:36;76.57;;;72.53;;
13999;SDS011;7075;53.574;10.054;2022-10-16T03:46:02;81.63;;;77.13;;
13999;SDS011;7075;53.574;10.054;2022-10-16T03:48:28;78.18;;;73.97;;
13999;SDS011;7075;53.574;10.054;2022-10-16T03:50:54;78.28;;;73.97;;
13999;SDS011;7075;53.574;10.054;2022-10-16T03:53:20;79.93;;;75.60;;
13999;SDS011;7075;53.574;10.054;2022-10-16T03:55:45;81.95;;;77.25;;
13999;SDS011;7075;53.574;10.054;2022-10-16T03:58:11;79.30;;;75.20;;
13999;SDS011;7075;53.574;10.054;2022-10-16T04:00:41;73.70;;;69.72;;
13999;SDS011;7075;53.574;10.054;2022-10-16T04:03:08;75.93;;;71.57;;
13999;SDS011;7075;53.574;10.054;2022-10-16T04:05:33;70.43;;;66.53;;
13999;SDS011;7075;53.574;10.054;2022-10-16T04:07:59;82.53;;;78.22;;
13999;SDS011;7075;53.574;10.054;2022-10-16T04:10:25;78.03;;;73.88;;
13999;SDS011;7075;53.574;10.054;2022-10-16T04:12:50;83.97;;;79.47;;
13999;SDS011;7075;53.574;10.054;2022-10-16T04:15:16;85.35;;;80.78;;
13999;SDS011;7075;53.574;10.054;2022-10-16T04:17:42;84.85;;;80.35;;
13999;SDS011;7075;53.574;10.054;2022-10-16T04:20:07;85.27;;;80.77;;
13999;SDS011;7075;53.574;10.054;2022-10-16T04:22:33;86.23;;;81.60;;
13999;SDS011;7075;53.574;10.054;2022-10-16T04:24:58;78.72;;;74.57;;
13999;SDS011;7075;53.574;10.054;2022-10-16T04:27:24;77.40;;;73.30;;
13999;SDS011;7075;53.574;10.054;2022-10-16T04:29:50;79.90;;;75.60;;
13999;SDS011;7075;53.574;10.054;2022-10-16T04:32:15;77.47;;;73.30;;
13999;SDS011;7075;53.574;10.054;2022-10-16T04:34:41;80.47;;;76.03;;
13999;SDS011;7075;53.574;10.054;2022-10-16T04:37:06;79.50;;;75.23;;
13999;SDS011;7075;53.574;10.054;2022-10-16T04:39:32;80.47;;;76.13;;
13999;SDS011;7075;53.574;10.054;2022-10-16T04:41:57;81.63;;;77.30;;
13999;SDS011;7075;53.574;10.054;2022-10-16T04:44:23;79.77;;;75.13;;
13999;SDS011;7075;53.574;10.054;2022-10-16T04:46:51;87.93;;;82.90;;
13999;SDS011;7075;53.574;10.054;2022-10-16T04:49:17;86.13;;;81.45;;
13999;SDS011;7075;53.574;10.054;2022-10-16T04:51:43;84.18;;;79.68;;
13999;SDS011;7075;53.574;10.054;2022-10-16T04:54:08;83.73;;;79.33;;
13999;SDS011;7075;53.574;10.054;2022-10-16T04:56:34;85.88;;;81.13;;
13999;SDS011;7075;53.574;10.054;2022-10-16T04:59:07;96.07;;;90.75;;
13999;SDS011;7075;53.574;10.054;2022-10-16T05:01:33;86.53;;;81.93;;
13999;SDS011;7075;53.574;10.054;2022-10-16T05:03:59;91.50;;;86.17;;
13999;SDS011;7075;53.574;10.054;2022-10-16T05:06:24;88.77;;;83.87;;
13999;SDS011;7075;53.574;10.054;2022-10-16T05:08:50;96.28;;;90.95;;
13999;SDS011;7075;53.574;10.054;2022-10-16T05:11:16;95.40;;;90.13;;
13999;SDS011;7075;53.574;10.054;2022-10-16T05:13:41;95.00;;;89.70;;
13999;SDS011;7075;53.574;10.054;2022-10-16T05:16:07;95.68;;;90.47;;
13999;SDS011;7075;53.574;10.054;2022-10-16T05:18:32;94.63;;;89.50;;
13999;SDS011;7075;53.574;10.054;2022-10-16T05:20:58;90.77;;;85.33;;
13999;SDS011;7075;53.574;10.054;2022-10-16T05:23:23;91.85;;;86.95;;
13999;SDS011;7075;53.574;10.054;2022-10-16T05:25:55;91.83;;;86.83;;
13999;SDS011;7075;53.574;10.054;2022-10-16T05:28:23;91.60;;;86.60;;
13999;SDS011;7075;53.574;10.054;2022-10-16T05:30:52;91.47;;;86.43;;
13999;SDS011;7075;53.574;10.054;2022-10-16T05:33:22;87.93;;;82.97;;
13999;SDS011;7075;53.574;10.054;2022-10-16T05:35:49;89.70;;;84.80;;
13999;SDS011;7075;53.574;10.054;2022-10-16T05:38:15;83.60;;;78.95;;
13999;SDS011;7075;53.574;10.054;2022-10-16T05:40:41;86.40;;;81.82;;
13999;SDS011;7075;53.574;10.054;2022-10-16T05:43:07;87.30;;;82.65;;
13999;SDS011;7075;53.574;10.054;2022-10-16T05:45:32;80.80;;;76.30;;
13999;SDS011;7075;53.574;10.054;2022-10-16T05:47:59;82.33;;;77.87;;
13999;SDS011;7075;53.574;10.054;2022-10-16T05:50:25;80.10;;;75.80;;
13999;SDS011;7075;53.574;10.054;2022-10-16T05:52:50;76.65;;;72.60;;
13999;SDS011;7075;53.574;10.054;2022-10-16T05:55:16;73.43;;;69.53;;
13999;SDS011;7075;53.574;10.054;2022-10-16T05:57:42;78.07;;;73.88;;
13999;SDS011;7075;53.574;10.054;2022-10-16T06:00:07;78.00;;;73.50;;
13999;SDS011;7075;53.574;10.054;2022-10-16T06:02:34;82.55;;;78.03;;
13999;SDS011;7075;53.574;10.054;2022-10-16T06:04:59;78.53;;;74.15;;
13999;SDS011;7075;53.574;10.054;2022-10-16T06:07:25;86.30;;;81.43;;
13999;SDS011;7075;53.574;10.054;2022-10-16T06:09:51;81.43;;;76.97;;
13999;SDS011;7075;53.574;10.054;2022-10-16T06:12:17;87.45;;;82.53;;
13999;SDS011;7075;53.574;10.054;2022-10-16T06:14:44;89.88;;;84.80;;
13999;SDS011;7075;53.574;10.054;2022-10-16T06:17:11;95.80;;;90.47;;
13999;SDS011;7075;53.574;10.054;2022-10-16T06:19:38;93.20;;;88.10;;
13999;SDS011;7075;53.574;10.054;2022-10-16T06:22:04;93.15;;;87.95;;
13999;SDS011;7075;53.574;10.054;2022-10-16T06:24:29;97.60;;;92.10;;
13999;SDS011;7075;53.574;10.054;2022-10-16T06:26:55;98.33;;;92.97;;
13999;SDS011;7075;53.574;10.054;2022-10-16T06:29:20;98.07;;;92.65;;
13999;SDS011;7075;53.574;10.054;2022-10-16T06:31:46;100.90;;;95.40;;
13999;SDS011;7075;53.574;10.054;2022-10-16T06:34:11;94.63;;;89.43;;
13999;SDS011;7075;53.574;10.054;2022-10-16T06:36:37;93.45;;;88.03;;
13999;SDS011;7075;53.574;10.054;2022-10-16T06:39:04;90.75;;;85.65;;
13999;SDS011;7075;53.574;10.054;2022-10-16T06:41:30;102.60;;;96.47;;
13999;SDS011;7075;53.574;10.054;2022-10-16T06:43:56;96.28;;;90.75;;
13999;SDS011;7075;53.574;10.054;2022-10-16T06:46:23;99.97;;;94.28;;
13999;SDS011;7075;53.574;10.054;2022-10-16T06:48:49;96.90;;;91.40;;
13999;SDS011;7075;53.574;10.054;2022-10-16T06:51:15;95.07;;;89.37;;
13999;SDS011;7075;53.574;10.054;2022-10-16T06:53:46;94.35;;;89.07;;
13999;SDS011;7075;53.574;10.054;2022-10-16T06:56:18;97.57;;;91.82;;
13999;SDS011;7075;53.574;10.054;2022-10-16T06:58:45;99.43;;;93.72;;
13999;SDS011;7075;53.574;10.054;2022-10-16T07:01:12;102.78;;;96.97;;
13999;SDS011;7075;53.574;10.054;2022-10-16T07:03:39;106.53;;;100.45;;
13999;SDS011;7075;53.574;10.054;2022-10-16T07:06:07;111.03;;;104.45;;
13999;SDS011;7075;53.574;10.054;2022-10-16T07:08:34;106.05;;;100.05;;
13999;SDS011;7075;53.574;10.054;2022-10-16T07:11:03;107.60;;;101.20;;
13999;SDS011;7075;53.574;10.054;2022-10-16T07:13:32;108.60;;;101.72;;
13999;SDS011;7075;53.574;10.054;2022-10-16T07:16:07;107.78;;;101.50;;
13999;SDS011;7075;53.574;10.054;2022-10-16T07:18:37;106.40;;;100.15;;
13999;SDS011;7075;53.574;10.054;2022-10-16T07:21:08;108.65;;;102.32;;
13999;SDS011;7075;53.574;10.054;2022-10-16T07:23:35;108.93;;;102.47;;
13999;SDS011;7075;53.574;10.054;2022-10-16T07:26:01;103.60;;;97.73;;
13999;SDS011;7075;53.574;10.054;2022-10-16T07:28:27;104.90;;;98.97;;
13999;SDS011;7075;53.574;10.054;2022-10-16T07:30:53;109.90;;;103.68;;
13999;SDS011;7075;53.574;10.054;2022-10-16T07:33:19;108.00;;;101.68;;
13999;SDS011;7075;53.574;10.054;2022-10-16T07:35:51;111.80;;;105.30;;
13999;SDS011;7075;53.574;10.054;2022-10-16T07:38:18;112.45;;;106.00;;
13999;SDS011;7075;53.574;10.054;2022-10-16T07:40:44;110.30;;;104.07;;
13999;SDS011;7075;53.574;10.054;2022-10-16T07:43:10;109.75;;;103.40;;
13999;SDS011;7075;53.574;10.054;2022-10-16T07:45:36;107.18;;;101.10;;
13999;SDS011;7075;53.574;10.054;2022-10-16T07:48:02;108.25;;;102.18;;
13999;SDS011;7075;53.574;10.054;2022-10-16T07:50:27;106.25;;;100.10;;
13999;SDS011;7075;53.574;10.054;2022-10-16T07:52:53;106.10;;;100.07;;
13999;SDS011;7075;53.574;10.054;2022-10-16T07:55:18;107.40;;;101.00;;
13999;SDS011;7075;53.574;10.054;2022-10-16T07:57:44;100.57;;;94.90;;
13999;SDS011;7075;53.574;10.054;2022-10-16T08:00:09;94.27;;;88.87;;
13999;SDS011;7075;53.574;10.054;2022-10-16T08:02:41;93.13;;;87.97;;
13999;SDS011;7075;53.574;10.054;2022-10-16T08:05:11;89.97;;;85.07;;
13999;SDS011;7075;53.574;10.054;2022-10-16T08:07:36;91.60;;;86.53;;
13999;SDS011;7075;53.574;10.054;2022-10-16T08:10:02;92.47;;;87.30;;
13999;SDS011;7075;53.574;10.054;2022-10-16T08:12:28;87.43;;;82.53;;
13999;SDS011;7075;53.574;10.054;2022-10-16T08:14:54;84.43;;;79.67;;
13999;SDS011;7075;53.574;10.054;2022-10-16T08:17:19;90.30;;;85.32;;
13999;SDS011;7075;53.574;10.054;2022-10-16T08:19:45;91.53;;;86.53;;
13999;SDS011;7075;53.574;10.054;2022-10-16T08:22:12;89.78;;;84.85;;
13999;SDS011;7075;53.574;10.054;2022-10-16T08:24:39;81.03;;;76.63;;
13999;SDS011;7075;53.574;10.054;2022-10-16T08:27:05;88.73;;;83.70;;
13999;SDS011;7075;53.574;10.054;2022-10-16T08:29:31;82.25;;;77.65;;
13999;SDS011;7075;53.574;10.054;2022-10-16T08:31:57;79.47;;;75.32;;
13999;SDS011;7075;53.574;10.054;2022-10-16T08:34:23;76.53;;;72.50;;
13999;SDS011;7075;53.574;10.054;2022-10-16T08:36:48;71.37;;;67.47;;
13999;SDS011;7075;53.574;10.054;2022-10-16T08:39:14;73.95;;;70.10;;
13999;SDS011;7075;53.574;10.054;2022-10-16T08:50:09;74.10;;;70.13;;
13999;SDS011;7075;53.574;10.054;2022-10-16T08:52:39;75.93;;;71.93;;
13999;SDS011;7075;53.574;10.054;2022-10-16T08:55:08;72.32;;;68.53;;
13999;SDS011;7075;53.574;10.054;2022-10-16T08:57:50;74.90;;;70.80;;
13999;SDS011;7075;53.574;10.054;2022-10-16T09:00:17;78.13;;;74.03;;
13999;SDS011;7075;53.574;10.054;2022-10-16T09:05:42;67.20;;;63.70;;
13999;SDS011;7075;53.574;10.054;2022-10-16T09:08:36;71.57;;;67.80;;
13999;SDS011;7075;53.574;10.054;2022-10-16T09:14:03;72.10;;;68.18;;
13999;SDS011;7075;53.574;10.054;2022-10-16T09:16:39;77.60;;;73.60;;
13999;SDS011;7075;53.574;10.054;2022-10-16T09:19:21;95.22;;;90.32;;
13999;SDS011;7075;53.574;10.054;2022-10-16T09:21:54;89.15;;;84.32;;
13999;SDS011;7075;53.574;10.054;2022-10-16T09:24:21;91.05;;;86.25;;
13999;SDS011;7075;53.574;10.054;2022-10-16T09:26:50;92.95;;;88.00;;
13999;SDS011;7075;53.574;10.054;2022-10-16T09:29:16;103.47;;;97.82;;
13999;SDS011;7075;53.574;10.054;2022-10-16T09:31:49;112.18;;;106.22;;
13999;SDS011;7075;53.574;10.054;2022-10-16T09:34:23;108.75;;;103.03;;
13999;SDS011;7075;53.574;10.054;2022-10-16T09:36:59;111.35;;;105.10;;
13999;SDS011;7075;53.574;10.054;2022-10-16T09:39:28;124.77;;;117.93;;
13999;SDS011;7075;53.574;10.054;2022-10-16T09:41:54;124.73;;;117.73;;
13999;SDS011;7075;53.574;10.054;2022-10-16T09:44:30;119.03;;;112.22;;
13999;SDS011;7075;53.574;10.054;2022-10-16T09:47:03;119.45;;;112.82;;
13999;SDS011;7075;53.574;10.054;2022-10-16T09:49:55;118.07;;;111.43;;
13999;SDS011;7075;53.574;10.054;2022-10-16T09:52:27;114.43;;;107.68;;
13999;SDS011;7075;53.574;10.054;2022-10-16T09:54:55;123.85;;;116.75;;
13999;SDS011;7075;53.574;10.054;2022-10-16T09:57:22;117.30;;;110.80;;
13999;SDS011;7075;53.574;10.054;2022-10-16T09:59:53;110.40;;;103.97;;
13999;SDS011;7075;53.574;10.054;2022-10-16T10:02:27;108.18;;;102.07;;
13999;SDS011;7075;53.574;10.054;2022-10-16T10:05:03;112.55;;;106.25;;
13999;SDS011;7075;53.574;10.054;2022-10-16T10:07:32;113.32;;;106.80;;
13999;SDS011;7075;53.574;10.054;2022-10-16T10:10:01;113.38;;;106.95;;
13999;SDS011;7075;53.574;10.054;2022-10-16T10:12:29;109.32;;;103.05;;
13999;SDS011;7075;53.574;10.054;2022-10-16T10:15:10;114.97;;;108.47;;
13999;SDS011;7075;53.574;10.054;2022-10-16T10:18:15;110.40;;;104.05;;
13999;SDS011;7075;53.574;10.054;2022-10-16T10:20:41;99.50;;;93.70;;
13999;SDS011;7075;53.574;10.054;2022-10-16T10:23:20;103.50;;;97.60;;
13999;SDS011;7075;53.574;10.054;2022-10-16T10:25:49;102.20;;;96.43;;
13999;SDS011;7075;53.574;10.054;2022-10-16T10:28:32;91.73;;;86.43;;
13999;SDS011;7075;53.574;10.054;2022-10-16T10:31:34;112.77;;;106.10;;
13999;SDS011;7075;53.574;10.054;2022-10-16T10:37:06;121.90;;;115.22;;
13999;SDS011;7075;53.574;10.054;2022-10-16T10:40:00;100.43;;;94.78;;
13999;SDS011;7075;53.574;10.054;2022-10-16T10:43:20;106.40;;;100.65;;
13999;SDS011;7075;53.574;10.054;2022-10-16T10:48:29;98.97;;;93.20;;
13999;SDS011;7075;53.574;10.054;2022-10-16T10:51:15;110.38;;;104.30;;
13999;SDS011;7075;53.574;10.054;2022-10-16T10:54:14;86.32;;;81.68;;
13999;SDS011;7075;53.574;10.054;2022-10-16T11:07:58;121.60;;;114.65;;
13999;SDS011;7075;53.574;10.054;2022-10-16T11:10:29;130.50;;;122.88;;
13999;SDS011;7075;53.574;10.054;2022-10-16T11:13:09;123.83;;;116.33;;
13999;SDS011;7075;53.574;10.054;2022-10-16T11:15:47;122.03;;;114.68;;
13999;SDS011;7075;53.574;10.054;2022-10-16T11:18:16;124.03;;;116.73;;
13999;SDS011;7075;53.574;10.054;2022-10-16T11:20:54;141.95;;;133.45;;
13999;SDS011;7075;53.574;10.054;2022-10-16T11:25:54;139.27;;;130.70;;
13999;SDS011;7075;53.574;10.054;2022-10-16T11:28:27;130.45;;;122.25;;
13999;SDS011;7075;53.574;10.054;2022-10-16T11:33:37;146.10;;;137.32;;
13999;SDS011;7075;53.574;10.054;2022-10-16T11:36:19;158.57;;;148.87;;
13999;SDS011;7075;53.574;10.054;2022-10-16T11:38:55;129.80;;;122.15;;
13999;SDS011;7075;53.574;10.054;2022-10-16T11:42:04;146.77;;;137.98;;
13999;SDS011;7075;53.574;10.054;2022-10-16T11:49:52;124.22;;;116.75;;
13999;SDS011;7075;53.574;10.054;2022-10-16T11:54:53;118.23;;;110.70;;
13999;SDS011;7075;53.574;10.054;2022-10-16T11:58:05;119.20;;;112.03;;
13999;SDS011;7075;53.574;10.054;2022-10-16T12:00:21;119.70;;;112.60;;
13999;SDS011;7075;53.574;10.054;2022-10-16T12:02:58;119.35;;;112.07;;
13999;SDS011;7075;53.574;10.054;2022-10-16T12:05:37;99.80;;;94.07;;
13999;SDS011;7075;53.574;10.054;2022-10-16T12:08:29;120.70;;;113.40;;
13999;SDS011;7075;53.574;10.054;2022-10-16T12:11:03;114.30;;;107.63;;
13999;SDS011;7075;53.574;10.054;2022-10-16T12:13:44;108.32;;;101.93;;
13999;SDS011;7075;53.574;10.054;2022-10-16T12:18:39;114.50;;;107.97;;
13999;SDS011;7075;53.574;10.054;2022-10-16T12:21:09;115.55;;;108.57;;
13999;SDS011;7075;53.574;10.054;2022-10-16T12:24:00;131.63;;;123.60;;
13999;SDS011;7075;53.574;10.054;2022-10-16T12:26:29;111.20;;;104.43;;
13999;SDS011;7075;53.574;10.054;2022-10-16T12:29:12;114.72;;;107.65;;
13999;SDS011;7075;53.574;10.054;2022-10-16T12:31:45;117.20;;;109.82;;
13999;SDS011;7075;53.574;10.054;2022-10-16T12:37:13;103.55;;;97.32;;
13999;SDS011;7075;53.574;10.054;2022-10-16T12:39:44;140.50;;;131.82;;
13999;SDS011;7075;53.574;10.054;2022-10-16T12:44:55;151.02;;;141.85;;
13999;SDS011;7075;53.574;10.054;2022-10-16T12:49:56;137.63;;;128.85;;
13999;SDS011;7075;53.574;10.054;2022-10-16T12:52:26;147.73;;;138.70;;
13999;SDS011;7075;53.574;10.054;2022-10-16T12:55:02;151.18;;;141.95;;
13999;SDS011;7075;53.574;10.054;2022-10-16T12:57:35;146.10;;;137.75;;
13999;SDS011;7075;53.574;10.054;2022-10-16T13:00:32;138.25;;;130.38;;
13999;SDS011;7075;53.574;10.054;2022-10-16T13:09:00;136.38;;;128.65;;
13999;SDS011;7075;53.574;10.054;2022-10-16T13:12:35;147.65;;;139.23;;
13999;SDS011;7075;53.574;10.054;2022-10-16T13:20:25;124.90;;;117.47;;
13999;SDS011;7075;53.574;10.054;2022-10-16T13:28:29;132.93;;;125.43;;
13999;SDS011;7075;53.574;10.054;2022-10-16T13:30:58;120.47;;;113.63;;
13999;SDS011;7075;53.574;10.054;2022-10-16T13:35:55;110.18;;;104.15;;
13999;SDS011;7075;53.574;10.054;2022-10-16T13:38:22;115.00;;;108.80;;
13999;SDS011;7075;53.574;10.054;2022-10-16T13:43:36;110.67;;;104.67;;
13999;SDS011;7075;53.574;10.054;2022-10-16T13:46:05;133.20;;;125.60;;
13999;SDS011;7075;53.574;10.054;2022-10-16T13:48:36;110.25;;;104.22;;
13999;SDS011;7075;53.574;10.054;2022-10-16T13:51:03;115.65;;;109.38;;
13999;SDS011;7075;53.574;10.054;2022-10-16T13:53:31;110.63;;;104.28;;
13999;SDS011;7075;53.574;10.054;2022-10-16T13:55:58;110.05;;;104.13;;
13999;SDS011;7075;53.574;10.054;2022-10-16T13:58:25;108.93;;;102.85;;
13999;SDS011;7075;53.574;10.054;2022-10-16T14:01:15;109.07;;;103.20;;
13999;SDS011;7075;53.574;10.054;2022-10-16T14:03:45;113.40;;;107.28;;
13999;SDS011;7075;53.574;10.054;2022-10-16T14:06:12;106.10;;;100.13;;
13999;SDS011;7075;53.574;10.054;2022-10-16T14:09:00;111.53;;;105.25;;
13999;SDS011;7075;53.574;10.054;2022-10-16T14:11:31;99.60;;;94.28;;
13999;SDS011;7075;53.574;10.054;2022-10-16T14:13:57;111.97;;;105.80;;
13999;SDS011;7075;53.574;10.054;2022-10-16T14:16:23;118.82;;;112.18;;
13999;SDS011;7075;53.574;10.054;2022-10-16T14:18:57;101.18;;;95.63;;
13999;SDS011;7075;53.574;10.054;2022-10-16T14:21:28;102.63;;;97.13;;
13999;SDS011;7075;53.574;10.054;2022-10-16T14:23:54;105.25;;;99.45;;
13999;SDS011;7075;53.574;10.054;2022-10-16T14:26:22;111.07;;;104.97;;
13999;SDS011;7075;53.574;10.054;2022-10-16T14:29:00;111.57;;;105.57;;
13999;SDS011;7075;53.574;10.054;2022-10-16T14:31:30;103.25;;;97.35;;
13999;SDS011;7075;53.574;10.054;2022-10-16T14:33:58;112.77;;;106.33;;
13999;SDS011;7075;53.574;10.054;2022-10-16T14:36:25;105.60;;;99.85;;
13999;SDS011;7075;53.574;10.054;2022-10-16T14:39:37;104.22;;;98.38;;
13999;SDS011;7075;53.574;10.054;2022-10-16T14:41:46;114.72;;;108.35;;
13999;SDS011;7075;53.574;10.054;2022-10-16T14:44:13;111.50;;;105.20;;
13999;SDS011;7075;53.574;10.054;2022-10-16T14:46:41;116.53;;;109.97;;
13999;SDS011;7075;53.574;10.054;2022-10-16T14:51:37;103.20;;;97.43;;
13999;SDS011;7075;53.574;10.054;2022-10-16T14:54:10;114.97;;;108.37;;
13999;SDS011;7075;53.574;10.054;2022-10-16T15:02:02;120.13;;;113.28;;
13999;SDS011;7075;53.574;10.054;2022-10-16T15:04:53;117.57;;;110.72;;
13999;SDS011;7075;53.574;10.054;2022-10-16T15:07:19;121.30;;;114.00;;
13999;SDS011;7075;53.574;10.054;2022-10-16T15:09:45;130.73;;;122.88;;
13999;SDS011;7075;53.574;10.054;2022-10-16T15:12:12;134.88;;;126.82;;
13999;SDS011;7075;53.574;10.054;2022-10-16T15:14:37;140.68;;;131.77;;
13999;SDS011;7075;53.574;10.054;2022-10-16T15:17:03;131.47;;;123.40;;
13999;SDS011;7075;53.574;10.054;2022-10-16T15:19:29;125.72;;;118.00;;
13999;SDS011;7075;53.574;10.054;2022-10-16T15:21:55;140.80;;;132.25;;
13999;SDS011;7075;53.574;10.054;2022-10-16T15:24:21;128.20;;;120.22;;
13999;SDS011;7075;53.574;10.054;2022-10-16T15:26:47;130.03;;;121.97;;
13999;SDS011;7075;53.574;10.054;2022-10-16T15:29:13;125.90;;;118.32;;
13999;SDS011;7075;53.574;10.054;2022-10-16T15:31:39;119.85;;;112.60;;
13999;SDS011;7075;53.574;10.054;2022-10-16T15:34:08;133.30;;;125.18;;
13999;SDS011;7075;53.574;10.054;2022-10-16T15:36:35;129.88;;;121.95;;
13999;SDS011;7075;53.574;10.054;2022-10-16T15:39:03;128.63;;;120.85;;
13999;SDS011;7075;53.574;10.054;2022-10-16T15:41:29;132.25;;;124.38;;
13999;SDS011;7075;53.574;10.054;2022-10-16T15:43:55;126.77;;;119.00;;
13999;SDS011;7075;53.574;10.054;2022-10-16T15:46:21;129.00;;;120.88;;
13999;SDS011;7075;53.574;10.054;2022-10-16T15:48:48;130.55;;;122.45;;
13999;SDS011;7075;53.574;10.054;2022-10-16T15:51:15;130.55;;;122.47;;
13999;SDS011;7075;53.574;10.054;2022-10-16T15:53:42;136.20;;;127.90;;
13999;SDS011;7075;53.574;10.054;2022-10-16T15:56:11;133.60;;;125.53;;
13999;SDS011;7075;53.574;10.054;2022-10-16T15:58:37;121.65;;;114.15;;
13999;SDS011;7075;53.574;10.054;2022-10-16T16:01:03;133.07;;;124.87;;
13999;SDS011;7075;53.574;10.054;2022-10-16T16:03:29;133.70;;;125.20;;
13999;SDS011;7075;53.574;10.054;2022-10-16T16:05:55;132.52;;;124.47;;
13999;SDS011;7075;53.574;10.054;2022-10-16T16:08:21;125.65;;;118.00;;
13999;SDS011;7075;53.574;10.054;2022-10-16T16:10:57;122.18;;;114.60;;
13999;SDS011;7075;53.574;10.054;2022-10-16T16:13:27;123.43;;;115.78;;